David F Stone — WCZ6032 — position and weather

sailwx.info

Track history (hours):
 
Tides and Currents Weather Stations Pressure Air Temp Water Temp Dewpoint Dewpoint Depression Visibility Wind Speed Wind Dir Waves Ship Positions

David F Stone

Owner: Blessey Enterprises, Inc., HARAHAN, LA. More information available from US FCC via Universal Licensing System and Coast Guard Vessel Documentation Center.

Last reported at 2018-Jan-12 13:34 UTC. Time now 2018-Jan-18 00:10 UTC.
Position N 29°47' W 095°05'.

Length 20 m.

Type: Ship. MMSI: 366935420.

Date/timePositionNaut miles runAvg speedWind from/ knotsBaromVisibWave heightAir tempDewpointWater temp
2018-Jan-12 13:34N 29°47' W 095°05'0 0.0
2018-Jan-12 13:29N 29°47' W 095°05'2 0.4
2018-Jan-12 09:35N 29°46' W 095°05'2 5.8
2018-Jan-12 09:18N 29°44' W 095°04'2 0.5
2018-Jan-12 05:29N 29°44' W 095°02'3 6.8
2018-Jan-12 04:59N 29°46' W 095°05'2 0.2
2018-Jan-11 20:23N 29°47' W 095°05'0 0.0
2018-Jan-11 19:46N 29°47' W 095°05'0 0.0
2018-Jan-11 19:30N 29°47' W 095°05'0 0.0
2018-Jan-11 18:33N 29°47' W 095°05'0 0.0
2018-Jan-11 18:19N 29°47' W 095°05'0 0.0
2018-Jan-11 17:58N 29°47' W 095°05'0 0.0
2018-Jan-11 17:22N 29°47' W 095°05'3 0.9
2018-Jan-11 13:28N 29°44' W 095°03'0 1.0
2018-Jan-11 13:00N 29°44' W 095°03'0 0.2
2018-Jan-11 12:30N 29°44' W 095°03'0 0.2
2018-Jan-11 11:59N 29°44' W 095°03'0 0.0
2018-Jan-11 11:30N 29°44' W 095°03'0 0.0
2018-Jan-11 10:59N 29°44' W 095°03'710.4
2018-Jan-11 10:16N 29°37' W 095°01'927.4
2018-Jan-11 09:57N 29°45' W 095°04'1 0.3
2018-Jan-11 06:07N 29°46' W 095°05'1 0.4
2018-Jan-11 03:53N 29°45' W 095°06'1 0.9
2018-Jan-11 02:40N 29°46' W 095°05'2 7.8
2018-Jan-11 02:27N 29°44' W 095°04'3 7.0
2018-Jan-11 02:00N 29°42' W 095°01'4 7.6
2018-Jan-11 01:30N 29°39' W 094°58'3 5.4
2018-Jan-11 01:00N 29°37' W 094°60'2 3.4
2018-Jan-11 00:31N 29°37' W 095°01'0 0.0
2018-Jan-11 00:00N 29°37' W 095°01'0 0.0
2018-Jan-10 23:30N 29°37' W 095°01'0 0.0
2018-Jan-10 23:00N 29°37' W 095°01'0 0.0
2018-Jan-10 22:30N 29°37' W 095°01'0 0.0
2018-Jan-10 22:00N 29°37' W 095°01'0 0.0
2018-Jan-10 21:30N 29°37' W 095°01'0 0.0
2018-Jan-10 21:00N 29°37' W 095°01'0 0.0
2018-Jan-10 20:30N 29°37' W 095°01'0 0.0
2018-Jan-10 20:00N 29°37' W 095°01'0 0.0
2018-Jan-10 19:30N 29°37' W 095°01'0 0.0
2018-Jan-10 19:00N 29°37' W 095°01'0 0.0
2018-Jan-10 18:31N 29°37' W 095°01'0 0.0
2018-Jan-10 18:01N 29°37' W 095°01'0 0.0
2018-Jan-10 17:30N 29°37' W 095°01'0 0.0
2018-Jan-10 17:00N 29°37' W 095°01'0 0.0
2018-Jan-10 16:30N 29°37' W 095°01'0 0.0
2018-Jan-10 16:00N 29°37' W 095°01'0 0.1
2018-Jan-10 15:30N 29°37' W 095°01'0 0.0
2018-Jan-10 15:00N 29°37' W 095°01'0 0.0
2018-Jan-10 14:30N 29°37' W 095°01'0 0.1
2018-Jan-10 14:00N 29°37' W 095°01'0 0.1
2018-Jan-10 13:30N 29°37' W 095°01'3 5.9
2018-Jan-10 13:00N 29°37' W 094°58'3 6.6
2018-Jan-10 12:30N 29°34' W 094°55'3 6.9
2018-Jan-10 12:00N 29°32' W 094°53'  
2018-Jan-05 20:17N 29°31' W 094°53'2 8.7
2018-Jan-05 20:01N 29°33' W 094°55'4 8.5
2018-Jan-05 19:30N 29°37' W 094°57'4 8.8
2018-Jan-05 19:00N 29°41' W 094°59'4 0.6
2018-Jan-05 13:06N 29°44' W 095°02'1 7.6
2018-Jan-05 12:57N 29°43' W 095°01'3 7.6
2018-Jan-05 12:31N 29°40' W 094°59'3 6.8
2018-Jan-05 12:01N 29°37' W 094°58'3 5.2
2018-Jan-05 11:30N 29°37' W 095°01'0 0.0
2018-Jan-05 11:00N 29°37' W 095°01'0 0.0
2018-Jan-05 10:31N 29°37' W 095°01'0 0.0
2018-Jan-05 10:00N 29°37' W 095°01'0 0.0
2018-Jan-05 09:30N 29°37' W 095°01'0 0.0
2018-Jan-05 09:00N 29°37' W 095°01'0 0.0
2018-Jan-05 08:30N 29°37' W 095°01'0 0.0
2018-Jan-05 08:01N 29°37' W 095°01'0 0.0
2018-Jan-05 07:31N 29°37' W 095°01'0 0.0
2018-Jan-05 07:00N 29°37' W 095°01'0 0.0
2018-Jan-05 06:30N 29°37' W 095°01'0 0.0
2018-Jan-05 06:00N 29°37' W 095°01'0 0.0
2018-Jan-05 05:31N 29°37' W 095°01'0 0.0
2018-Jan-05 05:00N 29°37' W 095°01'0 0.0
2018-Jan-05 04:30N 29°37' W 095°01'0 0.8
2018-Jan-05 04:01N 29°37' W 095°01'3 6.3
2018-Jan-05 03:30N 29°37' W 094°58'3 6.3
2018-Jan-05 03:01N 29°40' W 094°59'3 6.1
2018-Jan-05 02:30N 29°42' W 095°01'3 5.9
2018-Jan-05 01:59N 29°45' W 095°04'1 0.6
2018-Jan-04 23:53N 29°46' W 095°04'3 6.4
2018-Jan-04 23:29N 29°44' W 095°02'3 5.7
2018-Jan-04 23:00N 29°42' W 095°00'3 5.8
2018-Jan-04 22:30N 29°40' W 094°58'3 5.2
2018-Jan-04 22:00N 29°37' W 094°57'3 6.3
2018-Jan-04 21:30N 29°34' W 094°56'3 6.6
2018-Jan-04 21:00N 29°32' W 094°53'  
2018-Jan-02 13:56N 29°31' W 094°53'  
Track history (hours):
 
Tides and Currents Weather Stations Pressure Air Temp Water Temp Dewpoint Dewpoint Depression Visibility Wind Speed Wind Dir Waves Ship Positions

David F Stone

Owner: Blessey Enterprises, Inc., HARAHAN, LA. More information available from US FCC via Universal Licensing System and Coast Guard Vessel Documentation Center.

Last reported at 2018-Jan-12 13:34 UTC. Time now 2018-Jan-18 00:10 UTC.
Position N 29°47' W 095°05'.

Length 20 m.

Type: Ship. MMSI: 366935420.

Date/timePositionNaut miles runAvg speedWind from/ knotsBaromVisibWave heightAir tempDewpointWater temp
2018-Jan-12 13:34N 29°47' W 095°05'0 0.0
2018-Jan-12 13:29N 29°47' W 095°05'2 0.4
2018-Jan-12 09:35N 29°46' W 095°05'2 5.8
2018-Jan-12 09:18N 29°44' W 095°04'2 0.5
2018-Jan-12 05:29N 29°44' W 095°02'3 6.8
2018-Jan-12 04:59N 29°46' W 095°05'2 0.2
2018-Jan-11 20:23N 29°47' W 095°05'0 0.0
2018-Jan-11 19:46N 29°47' W 095°05'0 0.0
2018-Jan-11 19:30N 29°47' W 095°05'0 0.0
2018-Jan-11 18:33N 29°47' W 095°05'0 0.0
2018-Jan-11 18:19N 29°47' W 095°05'0 0.0
2018-Jan-11 17:58N 29°47' W 095°05'0 0.0
2018-Jan-11 17:22N 29°47' W 095°05'3 0.9
2018-Jan-11 13:28N 29°44' W 095°03'0 1.0
2018-Jan-11 13:00N 29°44' W 095°03'0 0.2
2018-Jan-11 12:30N 29°44' W 095°03'0 0.2
2018-Jan-11 11:59N 29°44' W 095°03'0 0.0
2018-Jan-11 11:30N 29°44' W 095°03'0 0.0
2018-Jan-11 10:59N 29°44' W 095°03'710.4
2018-Jan-11 10:16N 29°37' W 095°01'927.4
2018-Jan-11 09:57N 29°45' W 095°04'1 0.3
2018-Jan-11 06:07N 29°46' W 095°05'1 0.4
2018-Jan-11 03:53N 29°45' W 095°06'1 0.9
2018-Jan-11 02:40N 29°46' W 095°05'2 7.8
2018-Jan-11 02:27N 29°44' W 095°04'3 7.0
2018-Jan-11 02:00N 29°42' W 095°01'4 7.6
2018-Jan-11 01:30N 29°39' W 094°58'3 5.4
2018-Jan-11 01:00N 29°37' W 094°60'2 3.4
2018-Jan-11 00:31N 29°37' W 095°01'0 0.0
2018-Jan-11 00:00N 29°37' W 095°01'0 0.0
2018-Jan-10 23:30N 29°37' W 095°01'0 0.0
2018-Jan-10 23:00N 29°37' W 095°01'0 0.0
2018-Jan-10 22:30N 29°37' W 095°01'0 0.0
2018-Jan-10 22:00N 29°37' W 095°01'0 0.0
2018-Jan-10 21:30N 29°37' W 095°01'0 0.0
2018-Jan-10 21:00N 29°37' W 095°01'0 0.0
2018-Jan-10 20:30N 29°37' W 095°01'0 0.0
2018-Jan-10 20:00N 29°37' W 095°01'0 0.0
2018-Jan-10 19:30N 29°37' W 095°01'0 0.0
2018-Jan-10 19:00N 29°37' W 095°01'0 0.0
2018-Jan-10 18:31N 29°37' W 095°01'0 0.0
2018-Jan-10 18:01N 29°37' W 095°01'0 0.0
2018-Jan-10 17:30N 29°37' W 095°01'0 0.0
2018-Jan-10 17:00N 29°37' W 095°01'0 0.0
2018-Jan-10 16:30N 29°37' W 095°01'0 0.0
2018-Jan-10 16:00N 29°37' W 095°01'0 0.1
2018-Jan-10 15:30N 29°37' W 095°01'0 0.0
2018-Jan-10 15:00N 29°37' W 095°01'0 0.0
2018-Jan-10 14:30N 29°37' W 095°01'0 0.1
2018-Jan-10 14:00N 29°37' W 095°01'0 0.1
2018-Jan-10 13:30N 29°37' W 095°01'3 5.9
2018-Jan-10 13:00N 29°37' W 094°58'3 6.6
2018-Jan-10 12:30N 29°34' W 094°55'3 6.9
2018-Jan-10 12:00N 29°32' W 094°53'  
2018-Jan-05 20:17N 29°31' W 094°53'2 8.7
2018-Jan-05 20:01N 29°33' W 094°55'4 8.5
2018-Jan-05 19:30N 29°37' W 094°57'4 8.8
2018-Jan-05 19:00N 29°41' W 094°59'4 0.6
2018-Jan-05 13:06N 29°44' W 095°02'1 7.6
2018-Jan-05 12:57N 29°43' W 095°01'3 7.6
2018-Jan-05 12:31N 29°40' W 094°59'3 6.8
2018-Jan-05 12:01N 29°37' W 094°58'3 5.2
2018-Jan-05 11:30N 29°37' W 095°01'0 0.0
2018-Jan-05 11:00N 29°37' W 095°01'0 0.0
2018-Jan-05 10:31N 29°37' W 095°01'0 0.0
2018-Jan-05 10:00N 29°37' W 095°01'0 0.0
2018-Jan-05 09:30N 29°37' W 095°01'0 0.0
2018-Jan-05 09:00N 29°37' W 095°01'0 0.0
2018-Jan-05 08:30N 29°37' W 095°01'0 0.0
2018-Jan-05 08:01N 29°37' W 095°01'0 0.0
2018-Jan-05 07:31N 29°37' W 095°01'0 0.0
2018-Jan-05 07:00N 29°37' W 095°01'0 0.0
2018-Jan-05 06:30N 29°37' W 095°01'0 0.0
2018-Jan-05 06:00N 29°37' W 095°01'0 0.0
2018-Jan-05 05:31N 29°37' W 095°01'0 0.0
2018-Jan-05 05:00N 29°37' W 095°01'0 0.0
2018-Jan-05 04:30N 29°37' W 095°01'0 0.8
2018-Jan-05 04:01N 29°37' W 095°01'3 6.3
2018-Jan-05 03:30N 29°37' W 094°58'3 6.3
2018-Jan-05 03:01N 29°40' W 094°59'3 6.1
2018-Jan-05 02:30N 29°42' W 095°01'3 5.9
2018-Jan-05 01:59N 29°45' W 095°04'1 0.6
2018-Jan-04 23:53N 29°46' W 095°04'3 6.4
2018-Jan-04 23:29N 29°44' W 095°02'3 5.7
2018-Jan-04 23:00N 29°42' W 095°00'3 5.8
2018-Jan-04 22:30N 29°40' W 094°58'3 5.2
2018-Jan-04 22:00N 29°37' W 094°57'3 6.3
2018-Jan-04 21:30N 29°34' W 094°56'3 6.6
2018-Jan-04 21:00N 29°32' W 094°53'  
2018-Jan-02 13:56N 29°31' W 094°53'  

Dump ship's entire track history